sensor_id;sensor_type;location;lat;lon;timestamp;temperature;humidity
9790;DHT22;4934;50.852;8.098;2024-02-04T00:00:20;8.80;99.90
9790;DHT22;4934;50.852;8.098;2024-02-04T00:02:45;8.80;99.90
9790;DHT22;4934;50.852;8.098;2024-02-04T00:05:11;8.90;99.90
9790;DHT22;4934;50.852;8.098;2024-02-04T00:07:37;8.80;99.90
9790;DHT22;4934;50.852;8.098;2024-02-04T00:10:03;8.80;99.90
9790;DHT22;4934;50.852;8.098;2024-02-04T00:12:28;8.80;99.90
9790;DHT22;4934;50.852;8.098;2024-02-04T00:14:54;8.70;99.90
9790;DHT22;4934;50.852;8.098;2024-02-04T00:17:20;8.80;99.90
9790;DHT22;4934;50.852;8.098;2024-02-04T00:19:45;8.80;99.90
9790;DHT22;4934;50.852;8.098;2024-02-04T00:22:11;8.80;99.90
9790;DHT22;4934;50.852;8.098;2024-02-04T00:24:36;8.80;99.90
9790;DHT22;4934;50.852;8.098;2024-02-04T00:27:02;8.70;99.90
9790;DHT22;4934;50.852;8.098;2024-02-04T00:29:28;8.70;99.90
9790;DHT22;4934;50.852;8.098;2024-02-04T00:31:53;8.70;99.90
9790;DHT22;4934;50.852;8.098;2024-02-04T00:34:19;8.70;99.90
9790;DHT22;4934;50.852;8.098;2024-02-04T00:36:45;8.70;99.90
9790;DHT22;4934;50.852;8.098;2024-02-04T00:39:10;8.80;99.90
9790;DHT22;4934;50.852;8.098;2024-02-04T00:41:36;8.70;99.90
9790;DHT22;4934;50.852;8.098;2024-02-04T00:44:02;8.70;99.90
9790;DHT22;4934;50.852;8.098;2024-02-04T00:46:28;8.80;99.90
9790;DHT22;4934;50.852;8.098;2024-02-04T00:48:53;8.80;99.90
9790;DHT22;4934;50.852;8.098;2024-02-04T00:51:19;8.80;99.90
9790;DHT22;4934;50.852;8.098;2024-02-04T00:53:46;8.80;99.90
9790;DHT22;4934;50.852;8.098;2024-02-04T00:56:12;8.70;99.90
9790;DHT22;4934;50.852;8.098;2024-02-04T00:58:40;8.80;99.90
9790;DHT22;4934;50.852;8.098;2024-02-04T01:01:06;8.80;99.90
9790;DHT22;4934;50.852;8.098;2024-02-04T01:03:32;8.70;99.90
9790;DHT22;4934;50.852;8.098;2024-02-04T01:05:57;8.70;99.90
9790;DHT22;4934;50.852;8.098;2024-02-04T01:08:23;8.70;99.90
9790;DHT22;4934;50.852;8.098;2024-02-04T01:10:49;8.70;99.90
9790;DHT22;4934;50.852;8.098;2024-02-04T01:13:16;8.70;99.90
9790;DHT22;4934;50.852;8.098;2024-02-04T01:15:42;8.70;99.90
9790;DHT22;4934;50.852;8.098;2024-02-04T01:18:08;8.70;99.90
9790;DHT22;4934;50.852;8.098;2024-02-04T01:20:34;8.70;99.90
9790;DHT22;4934;50.852;8.098;2024-02-04T01:23:00;8.70;99.90
9790;DHT22;4934;50.852;8.098;2024-02-04T01:25:26;8.70;99.90
9790;DHT22;4934;50.852;8.098;2024-02-04T01:27:51;8.70;99.90
9790;DHT22;4934;50.852;8.098;2024-02-04T01:30:17;8.70;99.90
9790;DHT22;4934;50.852;8.098;2024-02-04T01:32:42;8.70;99.90
9790;DHT22;4934;50.852;8.098;2024-02-04T01:35:08;8.60;99.90
9790;DHT22;4934;50.852;8.098;2024-02-04T01:37:34;8.60;99.90
9790;DHT22;4934;50.852;8.098;2024-02-04T01:39:59;8.70;99.90
9790;DHT22;4934;50.852;8.098;2024-02-04T01:42:25;8.60;99.90
9790;DHT22;4934;50.852;8.098;2024-02-04T01:44:50;8.60;99.90
9790;DHT22;4934;50.852;8.098;2024-02-04T01:47:16;8.60;99.90
9790;DHT22;4934;50.852;8.098;2024-02-04T01:49:43;8.60;99.90
9790;DHT22;4934;50.852;8.098;2024-02-04T01:52:10;8.60;99.90
9790;DHT22;4934;50.852;8.098;2024-02-04T01:54:37;8.60;99.90
9790;DHT22;4934;50.852;8.098;2024-02-04T01:57:06;8.50;99.90
9790;DHT22;4934;50.852;8.098;2024-02-04T01:59:32;8.50;99.90
9790;DHT22;4934;50.852;8.098;2024-02-04T02:01:59;8.50;99.90
9790;DHT22;4934;50.852;8.098;2024-02-04T02:04:25;8.60;99.90
9790;DHT22;4934;50.852;8.098;2024-02-04T02:06:53;8.50;99.90
9790;DHT22;4934;50.852;8.098;2024-02-04T02:09:19;8.50;99.90
9790;DHT22;4934;50.852;8.098;2024-02-04T02:14:22;8.50;99.90
9790;DHT22;4934;50.852;8.098;2024-02-04T02:16:48;8.50;99.90
9790;DHT22;4934;50.852;8.098;2024-02-04T02:19:40;8.50;99.90
9790;DHT22;4934;50.852;8.098;2024-02-04T02:22:28;8.50;99.90
9790;DHT22;4934;50.852;8.098;2024-02-04T02:24:56;8.50;99.90
9790;DHT22;4934;50.852;8.098;2024-02-04T02:27:22;8.50;99.90
9790;DHT22;4934;50.852;8.098;2024-02-04T02:29:48;8.40;99.90
9790;DHT22;4934;50.852;8.098;2024-02-04T02:32:14;8.50;99.90
9790;DHT22;4934;50.852;8.098;2024-02-04T02:34:40;8.50;99.90
9790;DHT22;4934;50.852;8.098;2024-02-04T02:39:48;8.50;99.90
9790;DHT22;4934;50.852;8.098;2024-02-04T02:42:16;8.40;99.90
9790;DHT22;4934;50.852;8.098;2024-02-04T02:44:43;8.40;99.90
9790;DHT22;4934;50.852;8.098;2024-02-04T02:47:09;8.40;99.90
9790;DHT22;4934;50.852;8.098;2024-02-04T02:49:35;8.40;99.90
9790;DHT22;4934;50.852;8.098;2024-02-04T02:52:01;8.40;99.90
9790;DHT22;4934;50.852;8.098;2024-02-04T02:54:26;8.40;99.90
9790;DHT22;4934;50.852;8.098;2024-02-04T02:56:52;8.40;99.90
9790;DHT22;4934;50.852;8.098;2024-02-04T02:59:17;8.40;99.90
9790;DHT22;4934;50.852;8.098;2024-02-04T03:01:43;8.40;99.90
9790;DHT22;4934;50.852;8.098;2024-02-04T03:04:09;8.50;99.90
9790;DHT22;4934;50.852;8.098;2024-02-04T03:06:34;8.40;99.90
9790;DHT22;4934;50.852;8.098;2024-02-04T03:09:00;8.50;99.90
9790;DHT22;4934;50.852;8.098;2024-02-04T03:11:26;8.40;99.90
9790;DHT22;4934;50.852;8.098;2024-02-04T03:13:51;8.50;99.90
9790;DHT22;4934;50.852;8.098;2024-02-04T03:16:17;8.50;99.90
9790;DHT22;4934;50.852;8.098;2024-02-04T03:18:43;8.50;99.90
9790;DHT22;4934;50.852;8.098;2024-02-04T03:21:15;8.50;99.90
9790;DHT22;4934;50.852;8.098;2024-02-04T03:23:42;8.50;99.90
9790;DHT22;4934;50.852;8.098;2024-02-04T03:26:09;8.50;99.90
9790;DHT22;4934;50.852;8.098;2024-02-04T03:28:35;8.50;99.90
9790;DHT22;4934;50.852;8.098;2024-02-04T03:31:00;8.50;99.90
9790;DHT22;4934;50.852;8.098;2024-02-04T03:33:26;8.40;99.90
9790;DHT22;4934;50.852;8.098;2024-02-04T03:35:51;8.50;99.90
9790;DHT22;4934;50.852;8.098;2024-02-04T03:38:17;8.50;99.90
9790;DHT22;4934;50.852;8.098;2024-02-04T03:40:43;8.50;99.90
9790;DHT22;4934;50.852;8.098;2024-02-04T03:43:10;8.50;99.90
9790;DHT22;4934;50.852;8.098;2024-02-04T03:45:35;8.50;99.90
9790;DHT22;4934;50.852;8.098;2024-02-04T03:48:01;8.50;99.90
9790;DHT22;4934;50.852;8.098;2024-02-04T03:50:27;8.50;99.90
9790;DHT22;4934;50.852;8.098;2024-02-04T03:52:52;8.50;99.90
9790;DHT22;4934;50.852;8.098;2024-02-04T03:55:18;8.50;99.90
9790;DHT22;4934;50.852;8.098;2024-02-04T03:57:44;8.60;99.90
9790;DHT22;4934;50.852;8.098;2024-02-04T04:00:10;8.60;99.90
9790;DHT22;4934;50.852;8.098;2024-02-04T04:02:36;8.50;99.90
9790;DHT22;4934;50.852;8.098;2024-02-04T04:05:02;8.60;99.90
9790;DHT22;4934;50.852;8.098;2024-02-04T04:07:28;8.60;99.90
9790;DHT22;4934;50.852;8.098;2024-02-04T04:09:53;8.60;99.90
9790;DHT22;4934;50.852;8.098;2024-02-04T04:12:19;8.60;99.90
9790;DHT22;4934;50.852;8.098;2024-02-04T04:14:44;8.60;99.90
9790;DHT22;4934;50.852;8.098;2024-02-04T04:17:10;8.60;99.90
9790;DHT22;4934;50.852;8.098;2024-02-04T04:19:35;8.60;99.90
9790;DHT22;4934;50.852;8.098;2024-02-04T04:22:02;8.60;99.90
9790;DHT22;4934;50.852;8.098;2024-02-04T04:24:28;8.70;99.90
9790;DHT22;4934;50.852;8.098;2024-02-04T04:26:54;8.60;99.90
9790;DHT22;4934;50.852;8.098;2024-02-04T04:29:20;8.70;99.90
9790;DHT22;4934;50.852;8.098;2024-02-04T04:31:45;8.70;99.90
9790;DHT22;4934;50.852;8.098;2024-02-04T04:34:11;8.70;99.90
9790;DHT22;4934;50.852;8.098;2024-02-04T04:36:37;8.60;99.90
9790;DHT22;4934;50.852;8.098;2024-02-04T04:39:02;8.60;99.90
9790;DHT22;4934;50.852;8.098;2024-02-04T04:41:28;8.60;99.90
9790;DHT22;4934;50.852;8.098;2024-02-04T04:43:53;8.70;99.90
9790;DHT22;4934;50.852;8.098;2024-02-04T04:46:20;8.70;99.90
9790;DHT22;4934;50.852;8.098;2024-02-04T04:48:45;8.70;99.90
9790;DHT22;4934;50.852;8.098;2024-02-04T04:51:11;8.70;99.90
9790;DHT22;4934;50.852;8.098;2024-02-04T04:53:37;8.70;99.90
9790;DHT22;4934;50.852;8.098;2024-02-04T04:56:03;8.70;99.90
9790;DHT22;4934;50.852;8.098;2024-02-04T04:58:29;8.80;99.90
9790;DHT22;4934;50.852;8.098;2024-02-04T05:00:54;8.70;99.90
9790;DHT22;4934;50.852;8.098;2024-02-04T05:03:20;8.70;99.90
9790;DHT22;4934;50.852;8.098;2024-02-04T05:05:46;8.70;99.90
9790;DHT22;4934;50.852;8.098;2024-02-04T05:08:13;8.70;99.90
9790;DHT22;4934;50.852;8.098;2024-02-04T05:10:39;8.70;99.90
9790;DHT22;4934;50.852;8.098;2024-02-04T05:13:05;8.70;99.90
9790;DHT22;4934;50.852;8.098;2024-02-04T05:15:30;8.80;99.90
9790;DHT22;4934;50.852;8.098;2024-02-04T05:17:56;8.80;99.90
9790;DHT22;4934;50.852;8.098;2024-02-04T05:20:21;8.80;99.90
9790;DHT22;4934;50.852;8.098;2024-02-04T05:22:47;8.80;99.90
9790;DHT22;4934;50.852;8.098;2024-02-04T05:25:13;8.80;99.90
9790;DHT22;4934;50.852;8.098;2024-02-04T05:27:39;8.80;99.90
9790;DHT22;4934;50.852;8.098;2024-02-04T05:30:05;8.80;99.90
9790;DHT22;4934;50.852;8.098;2024-02-04T05:32:31;8.80;99.90
9790;DHT22;4934;50.852;8.098;2024-02-04T05:34:56;8.80;99.90
9790;DHT22;4934;50.852;8.098;2024-02-04T05:37:22;8.90;99.90
9790;DHT22;4934;50.852;8.098;2024-02-04T05:39:48;8.90;99.90
9790;DHT22;4934;50.852;8.098;2024-02-04T05:42:14;8.90;99.90
9790;DHT22;4934;50.852;8.098;2024-02-04T05:44:40;8.90;99.90
9790;DHT22;4934;50.852;8.098;2024-02-04T05:47:05;8.90;99.90
9790;DHT22;4934;50.852;8.098;2024-02-04T05:49:31;8.90;99.90
9790;DHT22;4934;50.852;8.098;2024-02-04T05:51:57;8.90;99.90
9790;DHT22;4934;50.852;8.098;2024-02-04T05:54:22;9.00;99.90
9790;DHT22;4934;50.852;8.098;2024-02-04T05:56:48;8.90;99.90
9790;DHT22;4934;50.852;8.098;2024-02-04T05:59:13;8.90;99.90
9790;DHT22;4934;50.852;8.098;2024-02-04T06:01:41;8.70;99.90
9790;DHT22;4934;50.852;8.098;2024-02-04T06:04:06;8.80;99.90
9790;DHT22;4934;50.852;8.098;2024-02-04T06:06:32;8.80;99.90
9790;DHT22;4934;50.852;8.098;2024-02-04T06:08:57;8.80;99.90
9790;DHT22;4934;50.852;8.098;2024-02-04T06:11:23;8.90;99.90
9790;DHT22;4934;50.852;8.098;2024-02-04T06:13:49;8.90;99.90
9790;DHT22;4934;50.852;8.098;2024-02-04T06:16:15;8.90;99.90
9790;DHT22;4934;50.852;8.098;2024-02-04T06:18:41;8.90;99.90
9790;DHT22;4934;50.852;8.098;2024-02-04T06:21:07;8.90;99.90
9790;DHT22;4934;50.852;8.098;2024-02-04T06:23:33;8.90;99.90
9790;DHT22;4934;50.852;8.098;2024-02-04T06:25:59;8.90;99.90
9790;DHT22;4934;50.852;8.098;2024-02-04T06:28:25;9.00;99.90
9790;DHT22;4934;50.852;8.098;2024-02-04T06:30:50;8.90;99.90
9790;DHT22;4934;50.852;8.098;2024-02-04T06:33:16;8.90;99.90
9790;DHT22;4934;50.852;8.098;2024-02-04T06:35:42;8.90;99.90
9790;DHT22;4934;50.852;8.098;2024-02-04T06:38:08;8.80;99.90
9790;DHT22;4934;50.852;8.098;2024-02-04T06:40:33;8.80;99.90
9790;DHT22;4934;50.852;8.098;2024-02-04T06:42:59;8.90;99.90
9790;DHT22;4934;50.852;8.098;2024-02-04T06:45:24;8.90;99.90
9790;DHT22;4934;50.852;8.098;2024-02-04T06:47:50;8.90;99.90
9790;DHT22;4934;50.852;8.098;2024-02-04T06:50:16;8.90;99.90
9790;DHT22;4934;50.852;8.098;2024-02-04T06:52:42;8.90;99.90
9790;DHT22;4934;50.852;8.098;2024-02-04T06:55:08;8.90;99.90
9790;DHT22;4934;50.852;8.098;2024-02-04T06:57:34;8.90;99.90
9790;DHT22;4934;50.852;8.098;2024-02-04T06:59:59;8.80;99.90
9790;DHT22;4934;50.852;8.098;2024-02-04T07:02:25;8.80;99.90
9790;DHT22;4934;50.852;8.098;2024-02-04T07:04:51;8.80;99.90
9790;DHT22;4934;50.852;8.098;2024-02-04T07:07:16;8.80;99.90
9790;DHT22;4934;50.852;8.098;2024-02-04T07:09:42;8.80;99.90
9790;DHT22;4934;50.852;8.098;2024-02-04T07:12:07;8.80;99.90
9790;DHT22;4934;50.852;8.098;2024-02-04T07:14:33;8.80;99.90
9790;DHT22;4934;50.852;8.098;2024-02-04T07:16:58;8.80;99.90
9790;DHT22;4934;50.852;8.098;2024-02-04T07:19:24;8.80;99.90
9790;DHT22;4934;50.852;8.098;2024-02-04T07:21:49;8.80;99.90
9790;DHT22;4934;50.852;8.098;2024-02-04T07:24:15;8.80;99.90
9790;DHT22;4934;50.852;8.098;2024-02-04T07:26:41;8.90;99.90
9790;DHT22;4934;50.852;8.098;2024-02-04T07:29:06;8.90;99.90
9790;DHT22;4934;50.852;8.098;2024-02-04T07:31:32;8.90;99.90
9790;DHT22;4934;50.852;8.098;2024-02-04T07:33:57;8.90;99.90
9790;DHT22;4934;50.852;8.098;2024-02-04T07:36:23;8.90;99.90
9790;DHT22;4934;50.852;8.098;2024-02-04T07:38:48;8.90;99.90
9790;DHT22;4934;50.852;8.098;2024-02-04T07:41:14;8.90;99.90
9790;DHT22;4934;50.852;8.098;2024-02-04T07:43:41;8.90;99.90
9790;DHT22;4934;50.852;8.098;2024-02-04T07:46:08;8.90;99.90
9790;DHT22;4934;50.852;8.098;2024-02-04T07:48:34;8.90;99.90
9790;DHT22;4934;50.852;8.098;2024-02-04T07:50:59;9.00;99.90
9790;DHT22;4934;50.852;8.098;2024-02-04T07:53:25;9.00;99.90
9790;DHT22;4934;50.852;8.098;2024-02-04T07:55:51;9.00;99.90
9790;DHT22;4934;50.852;8.098;2024-02-04T07:58:16;9.00;99.90
9790;DHT22;4934;50.852;8.098;2024-02-04T08:00:42;9.00;99.90
9790;DHT22;4934;50.852;8.098;2024-02-04T08:03:07;9.00;99.90
9790;DHT22;4934;50.852;8.098;2024-02-04T08:05:34;9.10;99.90
9790;DHT22;4934;50.852;8.098;2024-02-04T08:08:01;9.10;99.90
9790;DHT22;4934;50.852;8.098;2024-02-04T08:10:26;9.00;99.90
9790;DHT22;4934;50.852;8.098;2024-02-04T08:12:52;9.00;99.90
9790;DHT22;4934;50.852;8.098;2024-02-04T08:15:19;9.00;99.90
9790;DHT22;4934;50.852;8.098;2024-02-04T08:17:45;9.10;99.90
9790;DHT22;4934;50.852;8.098;2024-02-04T08:20:11;9.00;99.90
9790;DHT22;4934;50.852;8.098;2024-02-04T08:22:37;9.10;99.90
9790;DHT22;4934;50.852;8.098;2024-02-04T08:25:04;9.20;99.90
9790;DHT22;4934;50.852;8.098;2024-02-04T08:27:31;9.10;99.90
9790;DHT22;4934;50.852;8.098;2024-02-04T08:29:56;9.10;99.90
9790;DHT22;4934;50.852;8.098;2024-02-04T08:32:22;9.20;99.90
9790;DHT22;4934;50.852;8.098;2024-02-04T08:34:47;9.30;99.90
9790;DHT22;4934;50.852;8.098;2024-02-04T08:37:13;9.20;99.90
9790;DHT22;4934;50.852;8.098;2024-02-04T08:39:39;9.20;99.90
9790;DHT22;4934;50.852;8.098;2024-02-04T08:42:05;9.20;99.90
9790;DHT22;4934;50.852;8.098;2024-02-04T08:44:30;9.20;99.90
9790;DHT22;4934;50.852;8.098;2024-02-04T08:46:56;9.30;99.90
9790;DHT22;4934;50.852;8.098;2024-02-04T08:49:22;9.30;99.90
9790;DHT22;4934;50.852;8.098;2024-02-04T08:51:47;9.30;99.90
9790;DHT22;4934;50.852;8.098;2024-02-04T08:54:13;9.30;99.90
9790;DHT22;4934;50.852;8.098;2024-02-04T08:56:40;9.40;99.90
9790;DHT22;4934;50.852;8.098;2024-02-04T08:59:05;9.40;99.90
9790;DHT22;4934;50.852;8.098;2024-02-04T09:01:31;9.40;99.90
9790;DHT22;4934;50.852;8.098;2024-02-04T09:03:57;9.40;99.90
9790;DHT22;4934;50.852;8.098;2024-02-04T09:06:22;9.40;99.90
9790;DHT22;4934;50.852;8.098;2024-02-04T09:08:48;9.30;99.90
9790;DHT22;4934;50.852;8.098;2024-02-04T09:11:14;9.30;99.90
9790;DHT22;4934;50.852;8.098;2024-02-04T09:13:45;9.10;99.90
9790;DHT22;4934;50.852;8.098;2024-02-04T09:16:11;9.20;99.90
9790;DHT22;4934;50.852;8.098;2024-02-04T09:18:37;9.20;99.90
9790;DHT22;4934;50.852;8.098;2024-02-04T09:21:02;9.20;99.90
9790;DHT22;4934;50.852;8.098;2024-02-04T09:23:28;9.20;99.90
9790;DHT22;4934;50.852;8.098;2024-02-04T09:25:54;9.30;99.90
9790;DHT22;4934;50.852;8.098;2024-02-04T09:28:19;9.30;99.90
9790;DHT22;4934;50.852;8.098;2024-02-04T09:30:45;9.20;99.90
9790;DHT22;4934;50.852;8.098;2024-02-04T09:33:11;9.20;99.90
9790;DHT22;4934;50.852;8.098;2024-02-04T09:35:37;9.20;99.90
9790;DHT22;4934;50.852;8.098;2024-02-04T09:38:03;9.30;99.90
9790;DHT22;4934;50.852;8.098;2024-02-04T09:40:28;9.30;99.90
9790;DHT22;4934;50.852;8.098;2024-02-04T09:42:56;9.30;99.90
9790;DHT22;4934;50.852;8.098;2024-02-04T09:45:22;9.40;99.90
9790;DHT22;4934;50.852;8.098;2024-02-04T09:47:50;9.30;99.90
9790;DHT22;4934;50.852;8.098;2024-02-04T09:50:19;9.30;99.90
9790;DHT22;4934;50.852;8.098;2024-02-04T09:52:48;9.30;99.90
9790;DHT22;4934;50.852;8.098;2024-02-04T09:55:15;9.30;99.90
9790;DHT22;4934;50.852;8.098;2024-02-04T09:57:42;9.30;99.90
9790;DHT22;4934;50.852;8.098;2024-02-04T10:00:10;9.30;99.90
9790;DHT22;4934;50.852;8.098;2024-02-04T10:02:36;9.40;99.90
9790;DHT22;4934;50.852;8.098;2024-02-04T10:05:02;9.50;99.90
9790;DHT22;4934;50.852;8.098;2024-02-04T10:07:28;9.40;99.90
9790;DHT22;4934;50.852;8.098;2024-02-04T10:09:55;9.30;99.90
9790;DHT22;4934;50.852;8.098;2024-02-04T10:12:21;9.30;99.90
9790;DHT22;4934;50.852;8.098;2024-02-04T10:14:48;9.40;99.90
9790;DHT22;4934;50.852;8.098;2024-02-04T10:17:15;9.50;99.90
9790;DHT22;4934;50.852;8.098;2024-02-04T10:19:41;9.50;99.90
9790;DHT22;4934;50.852;8.098;2024-02-04T10:22:07;9.60;99.90
9790;DHT22;4934;50.852;8.098;2024-02-04T10:24:32;9.70;99.90
9790;DHT22;4934;50.852;8.098;2024-02-04T10:26:58;9.70;99.90
9790;DHT22;4934;50.852;8.098;2024-02-04T10:29:25;9.80;99.90
9790;DHT22;4934;50.852;8.098;2024-02-04T10:31:57;9.80;99.90
9790;DHT22;4934;50.852;8.098;2024-02-04T10:34:25;9.90;99.90
9790;DHT22;4934;50.852;8.098;2024-02-04T10:36:51;9.80;99.90
9790;DHT22;4934;50.852;8.098;2024-02-04T10:39:17;9.80;99.90
9790;DHT22;4934;50.852;8.098;2024-02-04T10:41:51;9.80;99.90
9790;DHT22;4934;50.852;8.098;2024-02-04T10:44:23;9.80;99.90
9790;DHT22;4934;50.852;8.098;2024-02-04T10:46:50;9.80;99.90
9790;DHT22;4934;50.852;8.098;2024-02-04T10:49:18;9.80;99.90
9790;DHT22;4934;50.852;8.098;2024-02-04T10:51:45;9.70;99.90
9790;DHT22;4934;50.852;8.098;2024-02-04T10:54:14;9.70;99.90
9790;DHT22;4934;50.852;8.098;2024-02-04T10:56:45;9.80;99.90
9790;DHT22;4934;50.852;8.098;2024-02-04T10:59:11;9.70;99.90
9790;DHT22;4934;50.852;8.098;2024-02-04T11:01:41;9.80;99.90
9790;DHT22;4934;50.852;8.098;2024-02-04T11:04:10;9.80;99.90
9790;DHT22;4934;50.852;8.098;2024-02-04T11:06:40;9.70;99.90
9790;DHT22;4934;50.852;8.098;2024-02-04T11:09:08;9.80;99.90
9790;DHT22;4934;50.852;8.098;2024-02-04T11:11:36;9.80;99.90
9790;DHT22;4934;50.852;8.098;2024-02-04T11:14:04;9.80;99.90
9790;DHT22;4934;50.852;8.098;2024-02-04T11:19:45;9.90;99.90
9790;DHT22;4934;50.852;8.098;2024-02-04T11:27:54;9.80;99.90
9790;DHT22;4934;50.852;8.098;2024-02-04T11:30:19;9.70;99.90
9790;DHT22;4934;50.852;8.098;2024-02-04T11:32:45;9.80;99.90
9790;DHT22;4934;50.852;8.098;2024-02-04T11:35:12;9.80;99.90
9790;DHT22;4934;50.852;8.098;2024-02-04T11:37:38;9.70;99.90
9790;DHT22;4934;50.852;8.098;2024-02-04T11:40:07;9.80;99.90
9790;DHT22;4934;50.852;8.098;2024-02-04T11:42:33;9.80;99.90
9790;DHT22;4934;50.852;8.098;2024-02-04T11:45:12;9.80;99.90
9790;DHT22;4934;50.852;8.098;2024-02-04T11:47:39;9.80;99.90
9790;DHT22;4934;50.852;8.098;2024-02-04T11:50:04;9.80;99.90
9790;DHT22;4934;50.852;8.098;2024-02-04T11:52:30;9.80;99.90
9790;DHT22;4934;50.852;8.098;2024-02-04T11:54:56;9.80;99.90
9790;DHT22;4934;50.852;8.098;2024-02-04T11:57:23;9.80;99.90
9790;DHT22;4934;50.852;8.098;2024-02-04T11:59:50;9.80;99.90
9790;DHT22;4934;50.852;8.098;2024-02-04T12:02:16;9.80;99.90
9790;DHT22;4934;50.852;8.098;2024-02-04T12:04:46;9.80;99.90
9790;DHT22;4934;50.852;8.098;2024-02-04T12:07:16;9.70;99.90
9790;DHT22;4934;50.852;8.098;2024-02-04T12:09:43;9.80;99.90
9790;DHT22;4934;50.852;8.098;2024-02-04T12:12:08;9.80;99.90
9790;DHT22;4934;50.852;8.098;2024-02-04T12:14:35;9.90;99.90
9790;DHT22;4934;50.852;8.098;2024-02-04T12:17:11;10.00;99.90
9790;DHT22;4934;50.852;8.098;2024-02-04T12:19:37;10.10;99.90
9790;DHT22;4934;50.852;8.098;2024-02-04T12:22:04;10.10;99.90
9790;DHT22;4934;50.852;8.098;2024-02-04T12:24:35;10.10;99.90
9790;DHT22;4934;50.852;8.098;2024-02-04T12:27:02;10.20;99.90
9790;DHT22;4934;50.852;8.098;2024-02-04T12:29:28;10.20;99.90
9790;DHT22;4934;50.852;8.098;2024-02-04T12:32:01;10.10;99.90
9790;DHT22;4934;50.852;8.098;2024-02-04T12:34:27;10.10;99.90
9790;DHT22;4934;50.852;8.098;2024-02-04T12:36:59;10.00;99.90
9790;DHT22;4934;50.852;8.098;2024-02-04T12:39:25;10.10;99.90
9790;DHT22;4934;50.852;8.098;2024-02-04T12:41:51;10.00;99.90
9790;DHT22;4934;50.852;8.098;2024-02-04T12:44:18;10.10;99.90
9790;DHT22;4934;50.852;8.098;2024-02-04T12:46:44;10.00;99.90
9790;DHT22;4934;50.852;8.098;2024-02-04T12:49:10;10.00;99.90
9790;DHT22;4934;50.852;8.098;2024-02-04T12:51:36;10.00;99.90
9790;DHT22;4934;50.852;8.098;2024-02-04T12:54:11;10.00;99.90
9790;DHT22;4934;50.852;8.098;2024-02-04T12:56:48;10.00;99.90
9790;DHT22;4934;50.852;8.098;2024-02-04T12:59:30;10.00;99.90
9790;DHT22;4934;50.852;8.098;2024-02-04T13:02:00;10.00;99.90
9790;DHT22;4934;50.852;8.098;2024-02-04T13:04:26;10.10;99.90
9790;DHT22;4934;50.852;8.098;2024-02-04T13:06:52;10.00;99.90
9790;DHT22;4934;50.852;8.098;2024-02-04T13:09:18;10.00;99.90
9790;DHT22;4934;50.852;8.098;2024-02-04T13:11:45;9.90;99.90
9790;DHT22;4934;50.852;8.098;2024-02-04T13:14:10;9.90;99.90
9790;DHT22;4934;50.852;8.098;2024-02-04T13:16:37;9.90;99.90
9790;DHT22;4934;50.852;8.098;2024-02-04T13:19:03;9.90;99.90
9790;DHT22;4934;50.852;8.098;2024-02-04T13:21:29;9.80;99.90
9790;DHT22;4934;50.852;8.098;2024-02-04T13:23:55;9.90;99.90
9790;DHT22;4934;50.852;8.098;2024-02-04T13:26:20;9.90;99.90
9790;DHT22;4934;50.852;8.098;2024-02-04T13:28:47;10.00;99.90
9790;DHT22;4934;50.852;8.098;2024-02-04T13:31:13;10.00;99.90
9790;DHT22;4934;50.852;8.098;2024-02-04T13:33:39;10.00;99.90
9790;DHT22;4934;50.852;8.098;2024-02-04T13:36:07;10.10;99.90
9790;DHT22;4934;50.852;8.098;2024-02-04T13:38:36;10.00;99.90
9790;DHT22;4934;50.852;8.098;2024-02-04T13:41:05;10.00;99.90
9790;DHT22;4934;50.852;8.098;2024-02-04T13:43:33;10.00;99.90
9790;DHT22;4934;50.852;8.098;2024-02-04T13:46:02;9.90;99.90
9790;DHT22;4934;50.852;8.098;2024-02-04T13:48:28;10.00;99.90
9790;DHT22;4934;50.852;8.098;2024-02-04T13:50:54;9.90;99.90
9790;DHT22;4934;50.852;8.098;2024-02-04T13:53:20;9.80;99.90
9790;DHT22;4934;50.852;8.098;2024-02-04T13:55:47;9.90;99.90
9790;DHT22;4934;50.852;8.098;2024-02-04T13:58:13;9.90;99.90
9790;DHT22;4934;50.852;8.098;2024-02-04T14:00:40;9.80;99.90
9790;DHT22;4934;50.852;8.098;2024-02-04T14:03:06;9.90;99.90
9790;DHT22;4934;50.852;8.098;2024-02-04T14:05:32;9.80;99.90
9790;DHT22;4934;50.852;8.098;2024-02-04T14:07:58;9.80;99.90
9790;DHT22;4934;50.852;8.098;2024-02-04T14:10:24;9.80;99.90
9790;DHT22;4934;50.852;8.098;2024-02-04T14:12:50;9.80;99.90
9790;DHT22;4934;50.852;8.098;2024-02-04T14:15:16;9.80;99.90
9790;DHT22;4934;50.852;8.098;2024-02-04T14:17:42;9.80;99.90
9790;DHT22;4934;50.852;8.098;2024-02-04T14:20:09;9.80;99.90
9790;DHT22;4934;50.852;8.098;2024-02-04T14:22:34;9.70;99.90
9790;DHT22;4934;50.852;8.098;2024-02-04T14:25:00;9.70;99.90
9790;DHT22;4934;50.852;8.098;2024-02-04T14:27:26;9.70;99.90
9790;DHT22;4934;50.852;8.098;2024-02-04T14:29:52;9.70;99.90
9790;DHT22;4934;50.852;8.098;2024-02-04T14:32:17;9.70;99.90
9790;DHT22;4934;50.852;8.098;2024-02-04T14:34:44;9.60;99.90
9790;DHT22;4934;50.852;8.098;2024-02-04T14:37:10;9.50;99.90
9790;DHT22;4934;50.852;8.098;2024-02-04T14:39:36;9.50;99.90
9790;DHT22;4934;50.852;8.098;2024-02-04T14:42:02;9.50;99.90
9790;DHT22;4934;50.852;8.098;2024-02-04T14:44:28;9.50;99.90
9790;DHT22;4934;50.852;8.098;2024-02-04T14:46:54;9.50;99.90
9790;DHT22;4934;50.852;8.098;2024-02-04T14:49:19;9.50;99.90
9790;DHT22;4934;50.852;8.098;2024-02-04T14:51:45;9.50;99.90
9790;DHT22;4934;50.852;8.098;2024-02-04T14:54:10;9.50;99.90
9790;DHT22;4934;50.852;8.098;2024-02-04T14:56:40;9.50;99.90
9790;DHT22;4934;50.852;8.098;2024-02-04T14:59:08;9.50;99.90
9790;DHT22;4934;50.852;8.098;2024-02-04T15:01:34;9.50;99.90
9790;DHT22;4934;50.852;8.098;2024-02-04T15:04:00;9.50;99.90
9790;DHT22;4934;50.852;8.098;2024-02-04T15:06:26;9.50;99.90
9790;DHT22;4934;50.852;8.098;2024-02-04T15:08:51;9.50;99.90
9790;DHT22;4934;50.852;8.098;2024-02-04T15:11:17;9.50;99.90
9790;DHT22;4934;50.852;8.098;2024-02-04T15:13:43;9.50;99.90
9790;DHT22;4934;50.852;8.098;2024-02-04T15:16:11;9.50;99.90
9790;DHT22;4934;50.852;8.098;2024-02-04T15:18:38;9.50;99.90
9790;DHT22;4934;50.852;8.098;2024-02-04T15:21:03;9.50;99.90
9790;DHT22;4934;50.852;8.098;2024-02-04T15:23:29;9.40;99.90
9790;DHT22;4934;50.852;8.098;2024-02-04T15:25:56;9.40;99.90
9790;DHT22;4934;50.852;8.098;2024-02-04T15:28:23;9.40;99.90
9790;DHT22;4934;50.852;8.098;2024-02-04T15:30:49;9.40;99.90
9790;DHT22;4934;50.852;8.098;2024-02-04T15:33:15;9.40;99.90
9790;DHT22;4934;50.852;8.098;2024-02-04T15:35:41;9.40;99.90
9790;DHT22;4934;50.852;8.098;2024-02-04T15:38:07;9.40;99.90
9790;DHT22;4934;50.852;8.098;2024-02-04T15:40:33;9.40;99.90
9790;DHT22;4934;50.852;8.098;2024-02-04T15:42:58;9.40;99.90
9790;DHT22;4934;50.852;8.098;2024-02-04T15:45:26;9.40;99.90
9790;DHT22;4934;50.852;8.098;2024-02-04T15:47:52;9.40;99.90
9790;DHT22;4934;50.852;8.098;2024-02-04T15:50:19;9.40;99.90
9790;DHT22;4934;50.852;8.098;2024-02-04T15:52:46;9.40;99.90
9790;DHT22;4934;50.852;8.098;2024-02-04T15:55:12;9.30;99.90
9790;DHT22;4934;50.852;8.098;2024-02-04T15:57:38;9.30;99.90
9790;DHT22;4934;50.852;8.098;2024-02-04T16:00:05;9.30;99.90
9790;DHT22;4934;50.852;8.098;2024-02-04T16:02:38;9.20;99.90
9790;DHT22;4934;50.852;8.098;2024-02-04T16:05:04;9.20;99.90
9790;DHT22;4934;50.852;8.098;2024-02-04T16:07:31;9.20;99.90
9790;DHT22;4934;50.852;8.098;2024-02-04T16:09:57;9.20;99.90
9790;DHT22;4934;50.852;8.098;2024-02-04T16:12:23;9.20;99.90
9790;DHT22;4934;50.852;8.098;2024-02-04T16:14:49;9.20;99.90
9790;DHT22;4934;50.852;8.098;2024-02-04T16:17:17;9.20;99.90
9790;DHT22;4934;50.852;8.098;2024-02-04T16:19:47;9.20;99.90
9790;DHT22;4934;50.852;8.098;2024-02-04T16:22:15;9.20;99.90
9790;DHT22;4934;50.852;8.098;2024-02-04T16:24:42;9.20;99.90